createdAt,value
2019-04-19T00:02:15.053Z,44.32
2019-04-19T00:07:24.136Z,44.56
2019-04-19T00:12:39.947Z,44.73
2019-04-19T00:17:35.473Z,44.98
2019-04-19T00:23:04.286Z,45.13
2019-04-19T00:27:59.915Z,45.29
2019-04-19T00:33:25.080Z,45.54
2019-04-19T00:38:36.898Z,45.67
2019-04-19T00:43:58.924Z,46.09
2019-04-19T00:49:02.826Z,46.37
2019-04-19T00:54:11.890Z,46.55
2019-04-19T00:59:10.175Z,46.55
2019-04-19T01:04:18.810Z,47.02
2019-04-19T01:09:34.483Z,47.16
2019-04-19T01:14:36.382Z,47.16
2019-04-19T01:19:32.635Z,47.34
2019-04-19T01:24:42.878Z,47.25
2019-04-19T01:29:48.704Z,47.60
2019-04-19T01:34:57.921Z,47.89
2019-04-19T01:40:14.915Z,47.98
2019-04-19T01:45:41.819Z,48.17
2019-04-19T01:51:03.327Z,48.33
2019-04-19T01:56:02.833Z,48.67
2019-04-19T02:01:12.417Z,48.75
2019-04-19T02:06:16.279Z,49.03
2019-04-19T02:11:51.366Z,49.00
2019-04-19T02:16:55.923Z,49.42
2019-04-19T02:22:02.072Z,49.38
2019-04-19T02:27:09.128Z,49.50
2019-04-19T02:32:41.063Z,49.52
2019-04-19T02:37:49.309Z,49.59
2019-04-19T02:42:51.376Z,49.87
2019-04-19T02:47:57.826Z,50.34
2019-04-19T02:53:14.478Z,50.50
2019-04-19T03:08:10.421Z,50.99
2019-04-19T03:13:35.377Z,51.30
2019-04-19T03:18:52.164Z,51.49
2019-04-19T03:23:44.995Z,51.71
2019-04-19T03:28:46.423Z,51.88
2019-04-19T03:34:16.264Z,52.19
2019-04-19T03:39:17.901Z,52.32
2019-04-19T03:44:29.240Z,52.37
2019-04-19T03:49:37.200Z,52.61
2019-04-19T03:54:39.167Z,52.45
2019-04-19T03:59:33.411Z,53.05
2019-04-19T04:04:38.851Z,53.12
2019-04-19T04:09:57.845Z,53.44
2019-04-19T04:15:37.013Z,53.63
2019-04-19T04:20:28.569Z,53.63
2019-04-19T04:25:44.128Z,53.86
2019-04-19T04:30:57.566Z,54.04
2019-04-19T04:36:15.645Z,54.09
2019-04-19T04:41:05.648Z,54.36
2019-04-19T04:46:48.562Z,54.77
2019-04-19T04:51:52.641Z,55.01
2019-04-19T04:56:59.194Z,55.00
2019-04-19T05:02:04.558Z,55.25
2019-04-19T05:07:25.691Z,55.73
2019-04-19T05:12:43.526Z,55.57
2019-04-19T05:22:43.047Z,55.26
2019-04-19T05:27:55.301Z,55.64
2019-04-19T05:32:54.924Z,55.82
2019-04-19T05:38:08.465Z,55.38
2019-04-19T05:43:44.847Z,55.02
2019-04-19T05:48:24.659Z,54.86
2019-04-19T05:53:27.809Z,54.84
2019-04-19T05:58:39.657Z,54.68
2019-04-19T06:03:48.497Z,54.39
2019-04-19T06:08:40.478Z,54.14
2019-04-19T06:13:57.129Z,53.88
2019-04-19T06:19:16.639Z,53.98
2019-04-19T06:24:30.142Z,53.54
2019-04-19T06:29:41.223Z,53.64
2019-04-19T06:34:39.951Z,53.13
2019-04-19T06:39:28.765Z,53.10
2019-04-19T06:44:56.096Z,53.35
2019-04-19T06:49:41.775Z,53.39
2019-04-19T06:54:48.130Z,53.23
2019-04-19T07:00:07.575Z,53.23
2019-04-19T07:05:15.231Z,53.09
2019-04-19T07:10:39.708Z,52.62
2019-04-19T07:15:44.199Z,52.03
2019-04-19T07:20:33.692Z,52.49
2019-04-19T07:25:54.472Z,52.17
2019-04-19T07:30:37.415Z,51.63
2019-04-19T07:36:00.624Z,50.29
2019-04-19T07:41:29.307Z,49.83
2019-04-19T07:46:38.393Z,50.68
2019-04-19T07:51:34.172Z,50.23
2019-04-19T07:56:48.465Z,49.56
2019-04-19T08:12:19.001Z,47.49
2019-04-19T08:27:26.876Z,45.47
2019-04-19T08:32:27.847Z,44.99
2019-04-19T08:37:37.818Z,45.01
2019-04-19T08:42:54.123Z,43.81
2019-04-19T08:48:11.898Z,41.92
2019-04-19T08:53:26.784Z,41.39
2019-04-19T08:58:39.851Z,40.70
2019-04-19T09:03:49.285Z,41.34
2019-04-19T09:08:46.242Z,40.04
2019-04-19T09:14:02.302Z,37.32
2019-04-19T09:19:12.361Z,36.45
2019-04-19T09:24:01.912Z,34.88
2019-04-19T09:29:29.321Z,34.02
2019-04-19T09:34:13.255Z,34.09
2019-04-19T09:39:44.590Z,32.81
2019-04-19T09:44:46.095Z,32.33
2019-04-19T09:50:01.468Z,32.23
2019-04-19T09:55:15.362Z,31.78
2019-04-19T10:00:08.850Z,30.92
2019-04-19T10:05:09.690Z,30.51
2019-04-19T10:10:16.183Z,30.71
2019-04-19T10:15:40.540Z,28.76
2019-04-19T10:21:09.984Z,28.30
2019-04-19T10:26:24.333Z,27.83
2019-04-19T10:31:39.744Z,26.24
2019-04-19T10:36:47.700Z,25.88
2019-04-19T10:41:52.273Z,25.42
2019-04-19T10:46:58.763Z,24.67
2019-04-19T10:52:10.452Z,24.28
2019-04-19T10:57:21.272Z,25.52
2019-04-19T11:02:36.691Z,23.85
2019-04-19T11:07:43.647Z,22.96
2019-04-19T11:13:08.804Z,22.95
2019-04-19T11:18:14.355Z,22.33
2019-04-19T11:23:21.793Z,21.68
2019-04-19T11:28:27.185Z,22.29
2019-04-19T11:33:34.931Z,21.55
2019-04-19T11:38:41.206Z,22.26
2019-04-19T11:43:47.655Z,20.82
2019-04-19T11:48:52.892Z,21.49
2019-04-19T11:53:59.226Z,22.63
2019-04-19T11:59:08.888Z,22.06
2019-04-19T12:04:14.399Z,22.22
2019-04-19T12:09:22.682Z,21.33
2019-04-19T12:14:29.554Z,21.30
2019-04-19T12:19:45.297Z,21.68
2019-04-19T12:24:42.835Z,20.40
2019-04-19T12:29:51.389Z,20.27
2019-04-19T12:34:55.418Z,19.84
2019-04-19T12:40:01.072Z,19.05
2019-04-19T12:45:10.181Z,19.40
2019-04-19T12:50:17.952Z,19.03
2019-04-19T12:55:24.107Z,18.20
2019-04-19T13:00:56.304Z,18.16
2019-04-19T13:06:01.789Z,19.00
2019-04-19T13:11:07.658Z,19.51
2019-04-19T13:16:12.902Z,19.57
2019-04-19T13:21:19.867Z,18.71
2019-04-19T13:26:25.324Z,18.93
2019-04-19T13:31:31.113Z,19.87
2019-04-19T13:36:51.339Z,19.10
2019-04-19T13:42:05.193Z,18.89
2019-04-19T13:47:10.992Z,18.63
2019-04-19T13:52:16.653Z,19.23
2019-04-19T13:57:23.724Z,18.15
2019-04-19T14:02:29.427Z,17.96
2019-04-19T14:07:34.896Z,18.09
2019-04-19T14:12:40.997Z,18.53
2019-04-19T14:17:46.010Z,19.38
2019-04-19T14:22:51.872Z,19.21
2019-04-19T14:27:57.610Z,19.58
2019-04-19T14:33:04.172Z,19.49
2019-04-19T14:38:11.804Z,19.84
2019-04-19T14:43:20.532Z,20.15
2019-04-19T14:48:36.888Z,21.03
2019-04-19T14:53:42.826Z,20.79
2019-04-19T14:58:48.377Z,20.68
2019-04-19T15:03:57.043Z,19.85
2019-04-19T15:09:05.834Z,20.39
2019-04-19T15:14:14.522Z,20.57
2019-04-19T15:19:23.106Z,20.44
2019-04-19T15:24:28.622Z,20.52
2019-04-19T15:29:34.695Z,20.91
2019-04-19T15:34:40.773Z,20.89
2019-04-19T15:39:47.936Z,21.17
2019-04-19T15:44:55.254Z,21.73
2019-04-19T15:50:02.298Z,22.05
2019-04-19T15:55:14.203Z,22.57
2019-04-19T16:00:27.908Z,22.37
2019-04-19T16:05:44.442Z,22.26
2019-04-19T16:11:08.886Z,22.52
2019-04-19T16:16:16.454Z,22.71
2019-04-19T16:21:31.246Z,22.72
2019-04-19T16:26:31.015Z,22.33
2019-04-19T16:31:38.218Z,22.26
2019-04-19T16:36:45.442Z,21.97
2019-04-19T16:41:51.110Z,21.95
2019-04-19T16:46:59.304Z,22.03
2019-04-19T16:52:04.918Z,22.00
2019-04-19T16:57:20.759Z,22.36
2019-04-19T17:02:20.248Z,22.25
2019-04-19T17:07:26.824Z,22.20
2019-04-19T17:12:32.764Z,22.34
2019-04-19T17:17:46.813Z,22.81
2019-04-19T17:22:58.691Z,23.20
2019-04-19T17:28:05.123Z,23.48
2019-04-19T17:33:10.492Z,23.72
2019-04-19T17:38:26.918Z,24.04
2019-04-19T17:43:23.607Z,24.87
2019-04-19T17:48:30.439Z,24.92
2019-04-19T17:53:42.322Z,25.22
2019-04-19T17:58:42.614Z,25.30
2019-04-19T18:03:58.814Z,25.66
2019-04-19T18:09:12.801Z,25.82
2019-04-19T18:14:14.227Z,26.33
2019-04-19T18:19:26.347Z,26.54
2019-04-19T18:24:29.727Z,26.74
2019-04-19T18:29:37.983Z,27.15
2019-04-19T18:34:45.710Z,27.55
2019-04-19T18:39:54.369Z,28.19
2019-04-19T18:45:02.675Z,28.37
2019-04-19T18:50:08.625Z,28.65
2019-04-19T18:55:20.814Z,28.97
2019-04-19T19:00:22.216Z,29.19
2019-04-19T19:05:28.082Z,29.60
2019-04-19T19:10:43.630Z,29.90
2019-04-19T19:15:48.182Z,30.05
2019-04-19T19:20:55.810Z,30.51
2019-04-19T19:26:10.601Z,30.86
2019-04-19T19:31:04.938Z,30.55
2019-04-19T19:36:12.463Z,30.53
2019-04-19T19:41:29.875Z,30.09
2019-04-19T19:46:51.257Z,29.89
2019-04-19T19:51:47.752Z,29.19
2019-04-19T19:57:08.293Z,29.14
2019-04-19T20:02:05.936Z,28.98
2019-04-19T20:07:06.129Z,29.10
2019-04-19T20:12:32.974Z,29.19
2019-04-19T20:17:38.768Z,29.19
2019-04-19T20:22:45.279Z,29.29
2019-04-19T20:27:51.730Z,29.08
2019-04-19T20:32:59.133Z,29.39
2019-04-19T20:38:07.286Z,29.36
2019-04-19T20:43:25.380Z,29.89
2019-04-19T20:48:20.674Z,30.03
2019-04-19T20:53:38.710Z,30.35
2019-04-19T20:58:43.530Z,30.72
2019-04-19T21:04:03.035Z,30.94
2019-04-19T21:09:01.623Z,31.22
2019-04-19T21:14:09.278Z,31.34
2019-04-19T21:19:14.419Z,31.42
2019-04-19T21:24:20.461Z,31.48
2019-04-19T21:29:30.192Z,32.04
2019-04-19T21:34:36.494Z,32.42
2019-04-19T21:39:44.887Z,32.37
2019-04-19T21:44:51.641Z,32.66
2019-04-19T21:49:57.070Z,32.76
2019-04-19T21:55:12.493Z,32.64
2019-04-19T22:00:21.153Z,32.71
2019-04-19T22:05:30.611Z,32.65
2019-04-19T22:10:39.941Z,32.70
2019-04-19T22:15:44.200Z,32.77
2019-04-19T22:20:54.114Z,33.24
2019-04-19T22:26:09.629Z,33.56
2019-04-19T22:31:12.517Z,33.53
2019-04-19T22:36:19.548Z,33.64
2019-04-19T22:41:26.837Z,33.75
2019-04-19T22:46:39.121Z,34.50
2019-04-19T22:51:40.599Z,34.61
2019-04-19T22:56:58.588Z,34.52
2019-04-19T23:02:10.311Z,34.94
2019-04-19T23:07:16.755Z,34.94
2019-04-19T23:12:22.703Z,35.61
2019-04-19T23:17:34.884Z,35.58
2019-04-19T23:22:40.665Z,36.29
2019-04-19T23:27:49.015Z,36.81
2019-04-19T23:32:50.335Z,36.71
2019-04-19T23:37:55.601Z,36.87
2019-04-19T23:43:33.599Z,36.73
2019-04-19T23:48:33.630Z,36.52
2019-04-19T23:53:42.820Z,36.58
2019-04-19T23:58:46.587Z,36.47
